sensor_id;sensor_type;location;lat;lon;timestamp;temperature;humidity
53268;DHT22;39156;51.176;6.738;2023-02-24T00:01:35;6.00;79.70
53268;DHT22;39156;51.176;6.738;2023-02-24T00:04:04;6.00;79.60
53268;DHT22;39156;51.176;6.738;2023-02-24T00:06:33;6.00;79.10
53268;DHT22;39156;51.176;6.738;2023-02-24T00:09:28;6.10;79.10
53268;DHT22;39156;51.176;6.738;2023-02-24T00:12:00;5.90;79.20
53268;DHT22;39156;51.176;6.738;2023-02-24T00:14:32;6.00;79.00
53268;DHT22;39156;51.176;6.738;2023-02-24T00:17:00;5.90;78.80
53268;DHT22;39156;51.176;6.738;2023-02-24T00:19:28;5.90;78.90
53268;DHT22;39156;51.176;6.738;2023-02-24T00:21:57;5.90;78.90
53268;DHT22;39156;51.176;6.738;2023-02-24T00:24:24;5.80;79.00
53268;DHT22;39156;51.176;6.738;2023-02-24T00:26:55;5.70;79.00
53268;DHT22;39156;51.176;6.738;2023-02-24T00:29:27;5.90;79.10
53268;DHT22;39156;51.176;6.738;2023-02-24T00:31:55;5.80;79.10
53268;DHT22;39156;51.176;6.738;2023-02-24T00:34:30;5.80;79.20
53268;DHT22;39156;51.176;6.738;2023-02-24T00:36:58;5.70;79.10
53268;DHT22;39156;51.176;6.738;2023-02-24T00:39:24;5.90;79.00
53268;DHT22;39156;51.176;6.738;2023-02-24T00:42:01;5.90;79.00
53268;DHT22;39156;51.176;6.738;2023-02-24T00:44:32;5.80;79.00
53268;DHT22;39156;51.176;6.738;2023-02-24T00:46:59;5.80;79.10
53268;DHT22;39156;51.176;6.738;2023-02-24T00:49:27;5.80;79.10
53268;DHT22;39156;51.176;6.738;2023-02-24T00:51:54;5.70;79.00
53268;DHT22;39156;51.176;6.738;2023-02-24T00:54:20;5.80;78.90
53268;DHT22;39156;51.176;6.738;2023-02-24T00:56:49;5.70;79.00
53268;DHT22;39156;51.176;6.738;2023-02-24T00:59:16;5.70;78.90
53268;DHT22;39156;51.176;6.738;2023-02-24T01:01:46;5.80;79.70
53268;DHT22;39156;51.176;6.738;2023-02-24T01:04:15;5.80;78.90
53268;DHT22;39156;51.176;6.738;2023-02-24T01:06:46;5.80;79.00
53268;DHT22;39156;51.176;6.738;2023-02-24T01:09:16;5.70;79.10
53268;DHT22;39156;51.176;6.738;2023-02-24T01:11:45;5.70;79.10
53268;DHT22;39156;51.176;6.738;2023-02-24T01:14:34;5.70;79.10
53268;DHT22;39156;51.176;6.738;2023-02-24T01:17:00;5.70;79.20
53268;DHT22;39156;51.176;6.738;2023-02-24T01:19:30;5.70;79.10
53268;DHT22;39156;51.176;6.738;2023-02-24T01:21:58;5.70;78.90
53268;DHT22;39156;51.176;6.738;2023-02-24T01:24:31;5.70;78.70
53268;DHT22;39156;51.176;6.738;2023-02-24T01:27:02;5.80;78.70
53268;DHT22;39156;51.176;6.738;2023-02-24T01:29:28;5.70;78.50
53268;DHT22;39156;51.176;6.738;2023-02-24T01:31:54;5.60;78.70
53268;DHT22;39156;51.176;6.738;2023-02-24T01:34:24;5.70;78.70
53268;DHT22;39156;51.176;6.738;2023-02-24T01:36:51;5.70;78.30
53268;DHT22;39156;51.176;6.738;2023-02-24T01:39:17;5.70;78.20
53268;DHT22;39156;51.176;6.738;2023-02-24T01:41:45;5.70;78.20
53268;DHT22;39156;51.176;6.738;2023-02-24T01:46:46;5.60;78.20
53268;DHT22;39156;51.176;6.738;2023-02-24T01:49:27;5.60;78.60
53268;DHT22;39156;51.176;6.738;2023-02-24T01:52:17;5.60;78.80
53268;DHT22;39156;51.176;6.738;2023-02-24T01:54:52;5.50;78.80
53268;DHT22;39156;51.176;6.738;2023-02-24T01:57:23;5.60;78.80
53268;DHT22;39156;51.176;6.738;2023-02-24T01:59:52;5.50;78.50
53268;DHT22;39156;51.176;6.738;2023-02-24T02:02:20;5.50;78.60
53268;DHT22;39156;51.176;6.738;2023-02-24T02:04:55;5.40;78.30
53268;DHT22;39156;51.176;6.738;2023-02-24T02:07:24;5.40;78.20
53268;DHT22;39156;51.176;6.738;2023-02-24T02:09:52;5.40;78.30
53268;DHT22;39156;51.176;6.738;2023-02-24T02:12:19;5.40;78.30
53268;DHT22;39156;51.176;6.738;2023-02-24T02:14:48;5.30;78.30
53268;DHT22;39156;51.176;6.738;2023-02-24T02:17:42;5.30;78.10
53268;DHT22;39156;51.176;6.738;2023-02-24T02:20:49;5.30;78.10
53268;DHT22;39156;51.176;6.738;2023-02-24T02:29:30;5.10;78.20
53268;DHT22;39156;51.176;6.738;2023-02-24T02:35:23;5.00;78.50
53268;DHT22;39156;51.176;6.738;2023-02-24T02:40:47;4.90;78.20
53268;DHT22;39156;51.176;6.738;2023-02-24T02:43:38;4.90;78.40
53268;DHT22;39156;51.176;6.738;2023-02-24T02:46:14;4.90;78.50
53268;DHT22;39156;51.176;6.738;2023-02-24T02:48:55;4.80;78.20
53268;DHT22;39156;51.176;6.738;2023-02-24T02:51:26;4.90;78.20
53268;DHT22;39156;51.176;6.738;2023-02-24T02:54:32;4.90;78.10
53268;DHT22;39156;51.176;6.738;2023-02-24T02:57:11;4.90;78.20
53268;DHT22;39156;51.176;6.738;2023-02-24T02:59:48;4.80;78.20
53268;DHT22;39156;51.176;6.738;2023-02-24T03:02:22;4.80;77.90
53268;DHT22;39156;51.176;6.738;2023-02-24T03:04:55;4.90;77.90
53268;DHT22;39156;51.176;6.738;2023-02-24T03:07:27;4.90;78.00
53268;DHT22;39156;51.176;6.738;2023-02-24T03:10:00;4.90;77.70
53268;DHT22;39156;51.176;6.738;2023-02-24T03:12:36;4.70;77.50
53268;DHT22;39156;51.176;6.738;2023-02-24T03:15:05;4.90;77.60
53268;DHT22;39156;51.176;6.738;2023-02-24T03:17:36;4.80;77.60
53268;DHT22;39156;51.176;6.738;2023-02-24T03:20:12;4.80;77.70
53268;DHT22;39156;51.176;6.738;2023-02-24T03:22:51;5.00;77.60
53268;DHT22;39156;51.176;6.738;2023-02-24T03:25:25;4.80;77.40
53268;DHT22;39156;51.176;6.738;2023-02-24T03:28:00;4.90;77.30
53268;DHT22;39156;51.176;6.738;2023-02-24T03:30:41;4.90;77.10
53268;DHT22;39156;51.176;6.738;2023-02-24T03:33:09;4.90;77.00
53268;DHT22;39156;51.176;6.738;2023-02-24T03:35:59;4.90;76.90
53268;DHT22;39156;51.176;6.738;2023-02-24T03:38:27;4.90;76.80
53268;DHT22;39156;51.176;6.738;2023-02-24T03:40:55;5.00;76.70
53268;DHT22;39156;51.176;6.738;2023-02-24T03:43:25;4.90;76.70
53268;DHT22;39156;51.176;6.738;2023-02-24T03:45:53;4.90;76.80
53268;DHT22;39156;51.176;6.738;2023-02-24T03:48:20;4.80;76.90
53268;DHT22;39156;51.176;6.738;2023-02-24T03:50:47;4.90;76.90
53268;DHT22;39156;51.176;6.738;2023-02-24T03:53:30;4.90;76.90
53268;DHT22;39156;51.176;6.738;2023-02-24T03:59:14;5.00;77.10
53268;DHT22;39156;51.176;6.738;2023-02-24T04:01:55;4.90;77.00
53268;DHT22;39156;51.176;6.738;2023-02-24T04:04:37;4.90;76.50
53268;DHT22;39156;51.176;6.738;2023-02-24T04:13:09;5.10;76.20
53268;DHT22;39156;51.176;6.738;2023-02-24T04:15:47;5.00;76.00
53268;DHT22;39156;51.176;6.738;2023-02-24T04:18:25;5.10;75.90
53268;DHT22;39156;51.176;6.738;2023-02-24T04:20:54;5.00;76.00
53268;DHT22;39156;51.176;6.738;2023-02-24T04:23:31;5.10;76.00
53268;DHT22;39156;51.176;6.738;2023-02-24T04:26:03;5.10;75.60
53268;DHT22;39156;51.176;6.738;2023-02-24T04:28:30;5.20;75.50
53268;DHT22;39156;51.176;6.738;2023-02-24T04:31:00;5.10;75.40
53268;DHT22;39156;51.176;6.738;2023-02-24T04:33:31;5.20;75.00
53268;DHT22;39156;51.176;6.738;2023-02-24T04:35:57;5.20;75.00
53268;DHT22;39156;51.176;6.738;2023-02-24T04:38:23;5.10;74.90
53268;DHT22;39156;51.176;6.738;2023-02-24T04:40:49;5.20;75.00
53268;DHT22;39156;51.176;6.738;2023-02-24T04:43:16;5.10;74.90
53268;DHT22;39156;51.176;6.738;2023-02-24T04:45:42;5.20;74.90
53268;DHT22;39156;51.176;6.738;2023-02-24T04:48:09;5.10;74.80
53268;DHT22;39156;51.176;6.738;2023-02-24T04:50:39;5.10;74.70
53268;DHT22;39156;51.176;6.738;2023-02-24T04:53:17;5.10;74.50
53268;DHT22;39156;51.176;6.738;2023-02-24T04:55:46;5.10;74.50
53268;DHT22;39156;51.176;6.738;2023-02-24T04:58:15;5.10;74.60
53268;DHT22;39156;51.176;6.738;2023-02-24T05:00:47;5.10;74.70
53268;DHT22;39156;51.176;6.738;2023-02-24T05:03:17;5.10;74.80
53268;DHT22;39156;51.176;6.738;2023-02-24T05:05:52;5.10;75.00
53268;DHT22;39156;51.176;6.738;2023-02-24T05:08:25;5.10;75.10
53268;DHT22;39156;51.176;6.738;2023-02-24T05:10:52;5.10;75.20
53268;DHT22;39156;51.176;6.738;2023-02-24T05:13:25;5.20;75.50
53268;DHT22;39156;51.176;6.738;2023-02-24T05:15:53;5.10;75.50
53268;DHT22;39156;51.176;6.738;2023-02-24T05:18:20;5.10;75.30
53268;DHT22;39156;51.176;6.738;2023-02-24T05:20:53;5.10;75.30
53268;DHT22;39156;51.176;6.738;2023-02-24T05:23:43;5.00;75.30
53268;DHT22;39156;51.176;6.738;2023-02-24T05:26:13;5.10;75.20
53268;DHT22;39156;51.176;6.738;2023-02-24T05:28:44;5.10;75.30
53268;DHT22;39156;51.176;6.738;2023-02-24T05:31:15;5.00;75.20
53268;DHT22;39156;51.176;6.738;2023-02-24T05:33:45;5.00;75.20
53268;DHT22;39156;51.176;6.738;2023-02-24T05:36:17;4.90;75.20
53268;DHT22;39156;51.176;6.738;2023-02-24T05:38:44;5.00;75.30
53268;DHT22;39156;51.176;6.738;2023-02-24T05:41:13;5.00;75.50
53268;DHT22;39156;51.176;6.738;2023-02-24T05:43:44;4.90;75.40
53268;DHT22;39156;51.176;6.738;2023-02-24T05:46:26;5.00;75.60
53268;DHT22;39156;51.176;6.738;2023-02-24T05:48:54;5.00;75.70
53268;DHT22;39156;51.176;6.738;2023-02-24T05:51:28;5.00;75.60
53268;DHT22;39156;51.176;6.738;2023-02-24T05:54:18;5.00;75.40
53268;DHT22;39156;51.176;6.738;2023-02-24T05:56:43;4.90;75.40
53268;DHT22;39156;51.176;6.738;2023-02-24T05:59:10;5.00;75.30
53268;DHT22;39156;51.176;6.738;2023-02-24T06:01:40;5.00;75.30
53268;DHT22;39156;51.176;6.738;2023-02-24T06:04:07;5.00;75.20
53268;DHT22;39156;51.176;6.738;2023-02-24T06:06:35;4.90;75.10
53268;DHT22;39156;51.176;6.738;2023-02-24T06:09:03;5.00;75.20
53268;DHT22;39156;51.176;6.738;2023-02-24T06:11:36;5.00;75.20
53268;DHT22;39156;51.176;6.738;2023-02-24T06:14:06;4.90;75.10
53268;DHT22;39156;51.176;6.738;2023-02-24T06:16:33;5.00;75.30
53268;DHT22;39156;51.176;6.738;2023-02-24T06:19:00;4.90;75.10
53268;DHT22;39156;51.176;6.738;2023-02-24T06:21:26;5.00;75.30
53268;DHT22;39156;51.176;6.738;2023-02-24T06:23:58;5.00;75.30
53268;DHT22;39156;51.176;6.738;2023-02-24T06:26:25;5.00;75.30
53268;DHT22;39156;51.176;6.738;2023-02-24T06:28:58;5.00;75.00
53268;DHT22;39156;51.176;6.738;2023-02-24T06:31:24;5.00;75.00
53268;DHT22;39156;51.176;6.738;2023-02-24T06:33:52;5.10;75.10
53268;DHT22;39156;51.176;6.738;2023-02-24T06:36:19;5.00;75.10
53268;DHT22;39156;51.176;6.738;2023-02-24T06:38:45;5.00;75.10
53268;DHT22;39156;51.176;6.738;2023-02-24T06:41:11;5.00;75.40
53268;DHT22;39156;51.176;6.738;2023-02-24T06:43:39;5.10;75.20
53268;DHT22;39156;51.176;6.738;2023-02-24T06:46:08;5.10;75.10
53268;DHT22;39156;51.176;6.738;2023-02-24T06:48:38;5.10;75.10
53268;DHT22;39156;51.176;6.738;2023-02-24T06:51:04;5.10;75.20
53268;DHT22;39156;51.176;6.738;2023-02-24T06:53:40;5.00;75.20
53268;DHT22;39156;51.176;6.738;2023-02-24T06:56:17;5.20;75.30
53268;DHT22;39156;51.176;6.738;2023-02-24T06:58:46;5.10;75.20
53268;DHT22;39156;51.176;6.738;2023-02-24T07:01:17;5.20;75.30
53268;DHT22;39156;51.176;6.738;2023-02-24T07:03:50;5.20;75.20
53268;DHT22;39156;51.176;6.738;2023-02-24T07:06:30;5.30;75.20
53268;DHT22;39156;51.176;6.738;2023-02-24T07:09:03;5.20;75.20
53268;DHT22;39156;51.176;6.738;2023-02-24T07:11:30;5.20;75.10
53268;DHT22;39156;51.176;6.738;2023-02-24T07:13:58;5.20;75.10
53268;DHT22;39156;51.176;6.738;2023-02-24T07:16:25;5.20;75.20
53268;DHT22;39156;51.176;6.738;2023-02-24T07:19:01;5.30;75.10
53268;DHT22;39156;51.176;6.738;2023-02-24T07:21:36;5.30;75.00
53268;DHT22;39156;51.176;6.738;2023-02-24T07:24:09;5.20;74.90
53268;DHT22;39156;51.176;6.738;2023-02-24T07:26:39;5.30;74.80
53268;DHT22;39156;51.176;6.738;2023-02-24T07:29:15;5.30;74.80
53268;DHT22;39156;51.176;6.738;2023-02-24T07:31:42;5.20;74.70
53268;DHT22;39156;51.176;6.738;2023-02-24T07:34:08;5.30;75.00
53268;DHT22;39156;51.176;6.738;2023-02-24T07:36:34;5.40;75.00
53268;DHT22;39156;51.176;6.738;2023-02-24T07:39:14;5.40;75.30
53268;DHT22;39156;51.176;6.738;2023-02-24T07:41:41;5.40;75.10
53268;DHT22;39156;51.176;6.738;2023-02-24T07:44:11;5.50;75.30
53268;DHT22;39156;51.176;6.738;2023-02-24T07:46:38;5.50;75.10
53268;DHT22;39156;51.176;6.738;2023-02-24T07:49:05;5.50;75.00
53268;DHT22;39156;51.176;6.738;2023-02-24T07:51:34;5.60;75.20
53268;DHT22;39156;51.176;6.738;2023-02-24T07:54:01;5.70;75.10
53268;DHT22;39156;51.176;6.738;2023-02-24T07:56:29;5.70;75.40
53268;DHT22;39156;51.176;6.738;2023-02-24T07:59:06;5.60;74.70
53268;DHT22;39156;51.176;6.738;2023-02-24T08:01:36;5.70;74.00
53268;DHT22;39156;51.176;6.738;2023-02-24T08:04:06;5.80;74.30
53268;DHT22;39156;51.176;6.738;2023-02-24T08:06:35;5.60;75.00
53268;DHT22;39156;51.176;6.738;2023-02-24T08:09:07;5.80;74.50
53268;DHT22;39156;51.176;6.738;2023-02-24T08:11:54;5.80;74.20
53268;DHT22;39156;51.176;6.738;2023-02-24T08:14:23;5.80;74.30
53268;DHT22;39156;51.176;6.738;2023-02-24T08:16:54;5.70;73.70
53268;DHT22;39156;51.176;6.738;2023-02-24T08:19:31;5.80;73.60
53268;DHT22;39156;51.176;6.738;2023-02-24T08:21:59;5.70;73.40
53268;DHT22;39156;51.176;6.738;2023-02-24T08:24:45;5.90;73.40
53268;DHT22;39156;51.176;6.738;2023-02-24T08:27:25;5.90;73.50
53268;DHT22;39156;51.176;6.738;2023-02-24T08:29:55;5.80;73.20
53268;DHT22;39156;51.176;6.738;2023-02-24T08:32:33;5.90;73.50
53268;DHT22;39156;51.176;6.738;2023-02-24T08:35:07;5.90;73.10
53268;DHT22;39156;51.176;6.738;2023-02-24T08:37:43;5.80;73.10
53268;DHT22;39156;51.176;6.738;2023-02-24T08:40:28;5.80;72.70
53268;DHT22;39156;51.176;6.738;2023-02-24T08:43:00;5.90;72.30
53268;DHT22;39156;51.176;6.738;2023-02-24T08:48:27;5.90;72.30
53268;DHT22;39156;51.176;6.738;2023-02-24T08:51:16;5.90;72.00
53268;DHT22;39156;51.176;6.738;2023-02-24T08:53:43;5.90;71.70
53268;DHT22;39156;51.176;6.738;2023-02-24T08:56:12;5.90;71.90
53268;DHT22;39156;51.176;6.738;2023-02-24T08:58:48;6.00;71.60
53268;DHT22;39156;51.176;6.738;2023-02-24T09:01:28;6.00;71.30
53268;DHT22;39156;51.176;6.738;2023-02-24T09:04:00;6.10;71.40
53268;DHT22;39156;51.176;6.738;2023-02-24T09:06:47;6.20;71.10
53268;DHT22;39156;51.176;6.738;2023-02-24T09:09:18;6.20;70.30
53268;DHT22;39156;51.176;6.738;2023-02-24T09:11:53;6.40;70.50
53268;DHT22;39156;51.176;6.738;2023-02-24T09:14:29;6.30;69.50
53268;DHT22;39156;51.176;6.738;2023-02-24T09:17:06;6.40;69.40
53268;DHT22;39156;51.176;6.738;2023-02-24T09:22:12;6.40;68.50
53268;DHT22;39156;51.176;6.738;2023-02-24T09:24:40;6.50;68.80
53268;DHT22;39156;51.176;6.738;2023-02-24T09:27:06;6.50;68.70
53268;DHT22;39156;51.176;6.738;2023-02-24T09:29:32;6.60;68.70
53268;DHT22;39156;51.176;6.738;2023-02-24T09:32:03;6.60;68.30
53268;DHT22;39156;51.176;6.738;2023-02-24T09:34:35;6.70;67.50
53268;DHT22;39156;51.176;6.738;2023-02-24T09:37:03;6.60;67.50
53268;DHT22;39156;51.176;6.738;2023-02-24T09:39:30;6.70;67.70
53268;DHT22;39156;51.176;6.738;2023-02-24T09:42:39;6.70;69.00
53268;DHT22;39156;51.176;6.738;2023-02-24T09:45:19;6.80;67.60
53268;DHT22;39156;51.176;6.738;2023-02-24T09:48:02;6.70;66.40
53268;DHT22;39156;51.176;6.738;2023-02-24T09:50:37;6.70;67.20
53268;DHT22;39156;51.176;6.738;2023-02-24T09:53:27;6.70;67.10
53268;DHT22;39156;51.176;6.738;2023-02-24T09:59:08;6.70;65.60
53268;DHT22;39156;51.176;6.738;2023-02-24T10:02:35;6.70;65.40
53268;DHT22;39156;51.176;6.738;2023-02-24T10:05:21;6.60;66.10
53268;DHT22;39156;51.176;6.738;2023-02-24T10:08:09;6.60;65.60
53268;DHT22;39156;51.176;6.738;2023-02-24T10:10:39;6.60;66.30
53268;DHT22;39156;51.176;6.738;2023-02-24T10:13:24;6.50;66.10
53268;DHT22;39156;51.176;6.738;2023-02-24T10:16:02;6.50;66.20
53268;DHT22;39156;51.176;6.738;2023-02-24T10:18:46;6.60;66.10
53268;DHT22;39156;51.176;6.738;2023-02-24T10:21:38;6.50;65.70
53268;DHT22;39156;51.176;6.738;2023-02-24T10:24:47;6.40;65.90
53268;DHT22;39156;51.176;6.738;2023-02-24T10:27:18;6.40;65.70
53268;DHT22;39156;51.176;6.738;2023-02-24T10:30:34;6.50;66.10
53268;DHT22;39156;51.176;6.738;2023-02-24T10:33:29;6.40;65.90
53268;DHT22;39156;51.176;6.738;2023-02-24T10:36:09;6.30;65.80
53268;DHT22;39156;51.176;6.738;2023-02-24T10:38:38;6.30;65.70
53268;DHT22;39156;51.176;6.738;2023-02-24T10:41:10;6.30;66.40
53268;DHT22;39156;51.176;6.738;2023-02-24T10:43:38;6.30;66.60
53268;DHT22;39156;51.176;6.738;2023-02-24T10:46:22;6.20;66.40
53268;DHT22;39156;51.176;6.738;2023-02-24T10:48:56;6.20;66.30
53268;DHT22;39156;51.176;6.738;2023-02-24T10:51:36;6.20;66.30
53268;DHT22;39156;51.176;6.738;2023-02-24T10:54:13;6.30;66.50
53268;DHT22;39156;51.176;6.738;2023-02-24T10:57:03;6.30;65.90
53268;DHT22;39156;51.176;6.738;2023-02-24T10:59:55;6.20;66.20
53268;DHT22;39156;51.176;6.738;2023-02-24T11:02:50;6.20;66.40
53268;DHT22;39156;51.176;6.738;2023-02-24T11:05:24;6.20;66.70
53268;DHT22;39156;51.176;6.738;2023-02-24T11:08:23;6.10;67.20
53268;DHT22;39156;51.176;6.738;2023-02-24T11:11:15;6.20;67.30
53268;DHT22;39156;51.176;6.738;2023-02-24T11:14:01;6.10;68.00
53268;DHT22;39156;51.176;6.738;2023-02-24T11:16:52;6.20;68.40
53268;DHT22;39156;51.176;6.738;2023-02-24T11:22:15;6.10;68.50
53268;DHT22;39156;51.176;6.738;2023-02-24T11:24:45;6.10;68.30
53268;DHT22;39156;51.176;6.738;2023-02-24T11:27:12;6.10;68.60
53268;DHT22;39156;51.176;6.738;2023-02-24T11:29:53;6.10;68.60
53268;DHT22;39156;51.176;6.738;2023-02-24T11:33:05;6.10;69.10
53268;DHT22;39156;51.176;6.738;2023-02-24T11:36:03;6.00;68.70
53268;DHT22;39156;51.176;6.738;2023-02-24T11:41:24;5.90;70.20
53268;DHT22;39156;51.176;6.738;2023-02-24T11:44:31;5.90;69.80
53268;DHT22;39156;51.176;6.738;2023-02-24T11:47:03;5.90;70.30
53268;DHT22;39156;51.176;6.738;2023-02-24T11:49:54;5.80;69.90
53268;DHT22;39156;51.176;6.738;2023-02-24T11:52:32;5.70;71.00
53268;DHT22;39156;51.176;6.738;2023-02-24T11:55:02;5.70;70.90
53268;DHT22;39156;51.176;6.738;2023-02-24T11:57:35;5.70;71.20
53268;DHT22;39156;51.176;6.738;2023-02-24T12:00:20;5.70;71.40
53268;DHT22;39156;51.176;6.738;2023-02-24T12:06:20;5.60;72.20
53268;DHT22;39156;51.176;6.738;2023-02-24T12:08:52;5.70;71.80
53268;DHT22;39156;51.176;6.738;2023-02-24T12:11:38;5.70;72.10
53268;DHT22;39156;51.176;6.738;2023-02-24T12:17:00;5.60;71.70
53268;DHT22;39156;51.176;6.738;2023-02-24T12:20:16;5.70;71.90
53268;DHT22;39156;51.176;6.738;2023-02-24T12:22:49;5.70;72.00
53268;DHT22;39156;51.176;6.738;2023-02-24T12:25:22;5.60;71.80
53268;DHT22;39156;51.176;6.738;2023-02-24T12:31:04;5.50;72.20
53268;DHT22;39156;51.176;6.738;2023-02-24T12:33:43;5.50;72.40
53268;DHT22;39156;51.176;6.738;2023-02-24T12:39:14;5.70;72.90
53268;DHT22;39156;51.176;6.738;2023-02-24T12:42:11;5.60;72.70
53268;DHT22;39156;51.176;6.738;2023-02-24T12:45:17;5.60;73.10
53268;DHT22;39156;51.176;6.738;2023-02-24T12:48:51;5.60;73.00
53268;DHT22;39156;51.176;6.738;2023-02-24T12:54:16;5.60;73.10
53268;DHT22;39156;51.176;6.738;2023-02-24T12:59:37;5.60;73.70
53268;DHT22;39156;51.176;6.738;2023-02-24T13:02:10;5.60;73.80
53268;DHT22;39156;51.176;6.738;2023-02-24T13:05:08;5.50;74.20
53268;DHT22;39156;51.176;6.738;2023-02-24T13:11:02;5.50;74.60
53268;DHT22;39156;51.176;6.738;2023-02-24T13:13:46;5.60;74.30
53268;DHT22;39156;51.176;6.738;2023-02-24T13:16:30;5.60;74.50
53268;DHT22;39156;51.176;6.738;2023-02-24T13:19:27;5.60;74.60
53268;DHT22;39156;51.176;6.738;2023-02-24T13:24:43;5.60;74.60
53268;DHT22;39156;51.176;6.738;2023-02-24T13:29:52;5.70;74.80
53268;DHT22;39156;51.176;6.738;2023-02-24T13:35:27;5.70;74.50
53268;DHT22;39156;51.176;6.738;2023-02-24T13:37:51;5.70;74.40
53268;DHT22;39156;51.176;6.738;2023-02-24T13:40:19;5.70;74.50
53268;DHT22;39156;51.176;6.738;2023-02-24T13:45:23;5.70;74.30
53268;DHT22;39156;51.176;6.738;2023-02-24T13:51:19;5.80;74.80
53268;DHT22;39156;51.176;6.738;2023-02-24T13:54:01;5.70;75.30
53268;DHT22;39156;51.176;6.738;2023-02-24T14:01:12;5.60;75.00
53268;DHT22;39156;51.176;6.738;2023-02-24T14:03:36;5.60;75.30
53268;DHT22;39156;51.176;6.738;2023-02-24T14:06:05;5.60;75.00
53268;DHT22;39156;51.176;6.738;2023-02-24T14:11:09;5.60;75.60
53268;DHT22;39156;51.176;6.738;2023-02-24T14:13:37;5.60;75.10
53268;DHT22;39156;51.176;6.738;2023-02-24T14:16:07;5.60;75.00
53268;DHT22;39156;51.176;6.738;2023-02-24T14:18:34;5.60;75.30
53268;DHT22;39156;51.176;6.738;2023-02-24T14:21:01;5.50;75.30
53268;DHT22;39156;51.176;6.738;2023-02-24T14:23:32;5.60;75.70
53268;DHT22;39156;51.176;6.738;2023-02-24T14:26:01;5.40;76.10
53268;DHT22;39156;51.176;6.738;2023-02-24T14:28:35;5.40;75.80
53268;DHT22;39156;51.176;6.738;2023-02-24T14:31:06;5.50;75.60
53268;DHT22;39156;51.176;6.738;2023-02-24T14:33:36;5.40;75.90
53268;DHT22;39156;51.176;6.738;2023-02-24T14:36:12;5.40;76.10
53268;DHT22;39156;51.176;6.738;2023-02-24T14:38:42;5.40;76.20
53268;DHT22;39156;51.176;6.738;2023-02-24T14:41:25;5.40;76.20
53268;DHT22;39156;51.176;6.738;2023-02-24T14:43:52;5.30;76.90
53268;DHT22;39156;51.176;6.738;2023-02-24T14:46:18;5.30;76.40
53268;DHT22;39156;51.176;6.738;2023-02-24T14:48:44;5.30;76.60
53268;DHT22;39156;51.176;6.738;2023-02-24T14:51:23;5.40;76.90
53268;DHT22;39156;51.176;6.738;2023-02-24T14:53:54;5.40;77.30
53268;DHT22;39156;51.176;6.738;2023-02-24T14:56:28;5.30;76.90
53268;DHT22;39156;51.176;6.738;2023-02-24T14:59:01;5.40;76.90
53268;DHT22;39156;51.176;6.738;2023-02-24T15:01:34;5.40;76.80
53268;DHT22;39156;51.176;6.738;2023-02-24T15:04:12;5.40;77.10
53268;DHT22;39156;51.176;6.738;2023-02-24T15:06:44;5.40;77.00
53268;DHT22;39156;51.176;6.738;2023-02-24T15:09:20;5.30;77.00
53268;DHT22;39156;51.176;6.738;2023-02-24T15:11:47;5.30;77.20
53268;DHT22;39156;51.176;6.738;2023-02-24T15:14:22;5.40;77.40
53268;DHT22;39156;51.176;6.738;2023-02-24T15:17:02;5.30;77.00
53268;DHT22;39156;51.176;6.738;2023-02-24T15:19:39;5.30;77.10
53268;DHT22;39156;51.176;6.738;2023-02-24T15:22:27;5.40;77.30
53268;DHT22;39156;51.176;6.738;2023-02-24T15:25:20;5.40;77.60
53268;DHT22;39156;51.176;6.738;2023-02-24T15:28:02;5.40;77.50
53268;DHT22;39156;51.176;6.738;2023-02-24T15:30:36;5.40;77.40
53268;DHT22;39156;51.176;6.738;2023-02-24T15:33:18;5.40;77.50
53268;DHT22;39156;51.176;6.738;2023-02-24T15:35:48;5.40;77.90
53268;DHT22;39156;51.176;6.738;2023-02-24T15:38:28;5.40;77.70
53268;DHT22;39156;51.176;6.738;2023-02-24T15:40:59;5.50;77.60
53268;DHT22;39156;51.176;6.738;2023-02-24T15:43:51;5.40;77.50
53268;DHT22;39156;51.176;6.738;2023-02-24T15:46:34;5.40;77.70
53268;DHT22;39156;51.176;6.738;2023-02-24T15:49:00;5.50;77.70
53268;DHT22;39156;51.176;6.738;2023-02-24T15:51:39;5.40;77.60
53268;DHT22;39156;51.176;6.738;2023-02-24T15:54:10;5.40;77.90
53268;DHT22;39156;51.176;6.738;2023-02-24T15:56:43;5.40;78.00
53268;DHT22;39156;51.176;6.738;2023-02-24T15:59:13;5.50;77.90
53268;DHT22;39156;51.176;6.738;2023-02-24T16:01:40;5.50;78.10
53268;DHT22;39156;51.176;6.738;2023-02-24T16:04:07;5.50;78.10
53268;DHT22;39156;51.176;6.738;2023-02-24T16:07:18;5.50;78.30
53268;DHT22;39156;51.176;6.738;2023-02-24T16:09:47;5.50;78.20
53268;DHT22;39156;51.176;6.738;2023-02-24T16:12:20;5.50;78.10
53268;DHT22;39156;51.176;6.738;2023-02-24T16:14:48;5.50;78.30
53268;DHT22;39156;51.176;6.738;2023-02-24T16:19:46;5.50;78.30
53268;DHT22;39156;51.176;6.738;2023-02-24T16:22:12;5.50;78.30
53268;DHT22;39156;51.176;6.738;2023-02-24T16:24:37;5.60;78.40
53268;DHT22;39156;51.176;6.738;2023-02-24T16:27:04;5.50;78.20
53268;DHT22;39156;51.176;6.738;2023-02-24T16:29:30;5.60;78.30
53268;DHT22;39156;51.176;6.738;2023-02-24T16:31:56;5.60;78.30
53268;DHT22;39156;51.176;6.738;2023-02-24T16:34:21;5.60;78.40
53268;DHT22;39156;51.176;6.738;2023-02-24T16:36:47;5.50;78.50
53268;DHT22;39156;51.176;6.738;2023-02-24T16:39:13;5.60;78.50
53268;DHT22;39156;51.176;6.738;2023-02-24T16:41:39;5.60;78.60
53268;DHT22;39156;51.176;6.738;2023-02-24T16:44:05;5.60;78.80
53268;DHT22;39156;51.176;6.738;2023-02-24T16:46:36;5.60;78.80
53268;DHT22;39156;51.176;6.738;2023-02-24T16:49:07;5.60;79.20
53268;DHT22;39156;51.176;6.738;2023-02-24T16:51:33;5.60;79.30
53268;DHT22;39156;51.176;6.738;2023-02-24T16:54:00;5.70;79.50
53268;DHT22;39156;51.176;6.738;2023-02-24T16:56:26;5.60;79.60
53268;DHT22;39156;51.176;6.738;2023-02-24T16:58:51;5.60;79.50
53268;DHT22;39156;51.176;6.738;2023-02-24T17:01:19;5.60;79.80
53268;DHT22;39156;51.176;6.738;2023-02-24T17:03:51;5.60;80.00
53268;DHT22;39156;51.176;6.738;2023-02-24T17:06:20;5.70;80.20
53268;DHT22;39156;51.176;6.738;2023-02-24T17:08:47;5.70;80.10
53268;DHT22;39156;51.176;6.738;2023-02-24T17:11:15;5.70;80.10
53268;DHT22;39156;51.176;6.738;2023-02-24T17:13:43;5.70;80.00
53268;DHT22;39156;51.176;6.738;2023-02-24T17:16:10;5.70;79.90
53268;DHT22;39156;51.176;6.738;2023-02-24T17:18:36;5.60;79.90
53268;DHT22;39156;51.176;6.738;2023-02-24T17:21:02;5.60;80.10
53268;DHT22;39156;51.176;6.738;2023-02-24T17:23:28;5.60;80.20
53268;DHT22;39156;51.176;6.738;2023-02-24T17:25:55;5.60;80.00
53268;DHT22;39156;51.176;6.738;2023-02-24T17:28:23;5.70;80.10
53268;DHT22;39156;51.176;6.738;2023-02-24T17:30:49;5.60;80.20
53268;DHT22;39156;51.176;6.738;2023-02-24T17:33:15;5.70;80.30
53268;DHT22;39156;51.176;6.738;2023-02-24T17:35:41;5.60;80.30
53268;DHT22;39156;51.176;6.738;2023-02-24T17:38:15;5.70;80.40
53268;DHT22;39156;51.176;6.738;2023-02-24T17:40:44;5.70;80.40
53268;DHT22;39156;51.176;6.738;2023-02-24T17:43:10;5.70;80.10
53268;DHT22;39156;51.176;6.738;2023-02-24T17:45:39;5.60;80.10
53268;DHT22;39156;51.176;6.738;2023-02-24T17:48:07;5.60;80.20
53268;DHT22;39156;51.176;6.738;2023-02-24T17:50:33;5.60;80.20
53268;DHT22;39156;51.176;6.738;2023-02-24T17:52:59;5.50;80.30